createdAt,value
2023-07-31T00:00:01.062Z,13
2023-07-31T00:04:01.255Z,12.9
2023-07-31T00:08:01.003Z,12.9
2023-07-31T00:12:01.123Z,12.9
2023-07-31T00:16:01.169Z,12.9
2023-07-31T00:20:01.089Z,12.9
2023-07-31T00:24:01.016Z,12.8
2023-07-31T00:28:01.243Z,12.8
2023-07-31T00:32:01.036Z,12.7
2023-07-31T00:36:01.184Z,12.7
2023-07-31T00:40:01.215Z,12.7
2023-07-31T00:44:01.039Z,12.7
2023-07-31T00:48:01.749Z,12.7
2023-07-31T00:52:02.580Z,12.6
2023-07-31T00:56:01.276Z,12.6
2023-07-31T01:00:01.136Z,12.6
2023-07-31T01:04:01.136Z,12.6
2023-07-31T01:08:05.258Z,12.6
2023-07-31T01:12:02.624Z,12.5
2023-07-31T01:16:01.223Z,12.5
2023-07-31T01:20:03.294Z,12.5
2023-07-31T01:24:08.973Z,12.5
2023-07-31T01:28:10.852Z,12.5
2023-07-31T01:32:02.357Z,12.4
2023-07-31T01:36:01.012Z,12.4
2023-07-31T01:40:01.595Z,12.4
2023-07-31T01:44:01.061Z,12.4
2023-07-31T01:48:00.965Z,12.4
2023-07-31T01:52:01.067Z,12.4
2023-07-31T01:56:00.960Z,12.4
2023-07-31T02:00:00.977Z,12.4
2023-07-31T02:04:01.505Z,12.3
2023-07-31T02:08:01.061Z,12.3
2023-07-31T02:12:00.979Z,12.3
2023-07-31T02:16:01.433Z,12.3
2023-07-31T02:20:01.108Z,12.3
2023-07-31T02:24:01.023Z,12.3
2023-07-31T02:28:01.183Z,12.3
2023-07-31T02:32:01.066Z,12.3
2023-07-31T02:36:01.139Z,12.3
2023-07-31T02:40:01.129Z,12.3
2023-07-31T02:44:01.068Z,12.2
2023-07-31T02:48:01.000Z,12.2
2023-07-31T02:52:01.187Z,12.2
2023-07-31T02:56:01.069Z,12.2
2023-07-31T03:00:01.039Z,12.2
2023-07-31T03:04:01.108Z,12.1
2023-07-31T03:08:01.166Z,12.1
2023-07-31T03:12:00.978Z,12.1
2023-07-31T03:16:01.235Z,12.1
2023-07-31T03:20:01.015Z,12.1
2023-07-31T03:24:00.977Z,12
2023-07-31T03:28:01.210Z,12
2023-07-31T03:32:01.272Z,12
2023-07-31T03:36:02.088Z,12
2023-07-31T03:40:01.265Z,12
2023-07-31T03:44:01.035Z,12
2023-07-31T03:48:01.035Z,12
2023-07-31T03:52:01.193Z,12
2023-07-31T03:56:01.072Z,12
2023-07-31T04:00:00.992Z,12
2023-07-31T04:04:01.232Z,12.1
2023-07-31T04:08:01.015Z,12.1
2023-07-31T04:12:01.047Z,12.2
2023-07-31T04:16:01.158Z,12.2
2023-07-31T04:20:01.060Z,12.2
2023-07-31T04:24:00.987Z,12.3
2023-07-31T04:28:01.283Z,12.3
2023-07-31T04:32:01.097Z,12.4
2023-07-31T04:36:01.030Z,12.4
2023-07-31T04:40:01.085Z,12.4
2023-07-31T04:44:01.197Z,12.7
2023-07-31T04:48:01.080Z,12.7
2023-07-31T04:52:01.175Z,12.9
2023-07-31T04:56:01.136Z,12.9
2023-07-31T05:00:00.991Z,12.9
2023-07-31T05:04:01.183Z,13.1
2023-07-31T05:08:01.169Z,13.1
2023-07-31T05:12:00.985Z,13.2
2023-07-31T05:16:03.317Z,13.2
2023-07-31T05:20:01.081Z,13.2
2023-07-31T05:24:01.036Z,13.4
2023-07-31T05:28:01.252Z,13.4
2023-07-31T05:32:01.205Z,13.5
2023-07-31T05:36:00.968Z,13.5
2023-07-31T05:40:01.257Z,13.5
2023-07-31T05:44:01.122Z,13.6
2023-07-31T05:48:01.057Z,13.6
2023-07-31T05:52:01.092Z,13.7
2023-07-31T05:56:01.157Z,13.7
2023-07-31T06:00:01.137Z,13.7
2023-07-31T06:04:02.169Z,13.8
2023-07-31T06:08:01.318Z,13.8
2023-07-31T06:12:01.054Z,14
2023-07-31T06:16:05.158Z,14
2023-07-31T06:20:03.527Z,14
2023-07-31T06:24:01.124Z,14.2
2023-07-31T06:28:01.408Z,14.2
2023-07-31T06:32:03.714Z,14.2
2023-07-31T06:36:01.070Z,14.2
2023-07-31T06:40:01.084Z,14.2
2023-07-31T06:44:01.259Z,14.5
2023-07-31T06:48:01.875Z,14.5
2023-07-31T06:52:01.321Z,14.8
2023-07-31T06:56:01.114Z,14.8
2023-07-31T07:00:01.133Z,14.8
2023-07-31T07:04:01.273Z,15
2023-07-31T07:08:01.178Z,15
2023-07-31T07:12:01.023Z,15.1
2023-07-31T07:16:01.078Z,15.1
2023-07-31T07:20:01.120Z,15.1
2023-07-31T07:24:01.122Z,15.3
2023-07-31T07:28:01.051Z,15.3
2023-07-31T07:32:01.087Z,15.4
2023-07-31T07:36:01.571Z,15.4
2023-07-31T07:40:01.124Z,15.4
2023-07-31T07:44:01.184Z,15.4
2023-07-31T07:48:01.070Z,15.4
2023-07-31T07:52:01.057Z,15.7
2023-07-31T07:56:01.054Z,15.7
2023-07-31T08:00:01.027Z,15.7
2023-07-31T08:04:01.795Z,15.9
2023-07-31T08:08:01.228Z,15.9
2023-07-31T08:12:03.405Z,15.8
2023-07-31T08:16:01.024Z,15.8
2023-07-31T08:20:01.052Z,15.8
2023-07-31T08:24:01.148Z,15.7
2023-07-31T08:28:01.089Z,15.7
2023-07-31T08:32:01.071Z,16
2023-07-31T08:36:01.764Z,16
2023-07-31T08:40:01.164Z,16
2023-07-31T08:44:02.250Z,16.1
2023-07-31T08:48:01.319Z,16.1
2023-07-31T08:52:01.630Z,16.2
2023-07-31T08:56:02.573Z,16.2
2023-07-31T09:00:01.625Z,16.2
2023-07-31T09:04:02.015Z,16.5
2023-07-31T09:08:02.648Z,16.5
2023-07-31T09:12:01.444Z,16.5
2023-07-31T09:16:01.220Z,16.5
2023-07-31T09:20:12.342Z,16.5
2023-07-31T09:24:01.066Z,16.7
2023-07-31T09:28:01.673Z,16.7
2023-07-31T09:32:01.162Z,16.8
2023-07-31T09:36:01.085Z,16.8
2023-07-31T09:40:01.036Z,16.8
2023-07-31T09:44:01.028Z,17
2023-07-31T09:48:01.018Z,17
2023-07-31T09:52:01.259Z,17.2
2023-07-31T09:56:01.174Z,17.2
2023-07-31T10:00:01.539Z,17.2
2023-07-31T10:04:01.868Z,17.7
2023-07-31T10:08:01.320Z,17.7
2023-07-31T10:12:04.376Z,17.7
2023-07-31T10:16:01.516Z,17.7
2023-07-31T10:20:03.738Z,17.7
2023-07-31T10:24:02.435Z,18.1
2023-07-31T10:28:01.027Z,18.1
2023-07-31T10:32:01.871Z,18.6
2023-07-31T10:36:10.754Z,18.6
2023-07-31T10:40:02.772Z,18.6
2023-07-31T10:44:01.114Z,18.9
2023-07-31T10:48:01.993Z,18.9
2023-07-31T10:52:03.628Z,18.8
2023-07-31T10:56:01.775Z,18.8
2023-07-31T11:00:10.748Z,18.8
2023-07-31T11:04:10.743Z,18.7
2023-07-31T11:08:09.967Z,18.7
2023-07-31T11:12:01.260Z,18.8
2023-07-31T11:16:01.053Z,18.8
2023-07-31T11:20:01.245Z,18.8
2023-07-31T11:24:01.043Z,18.6
2023-07-31T11:28:03.275Z,18.6
2023-07-31T11:32:01.040Z,18.3
2023-07-31T11:36:01.204Z,18.3
2023-07-31T11:40:01.172Z,18.3
2023-07-31T11:44:07.276Z,18.4
2023-07-31T11:48:01.333Z,18.4
2023-07-31T11:52:01.157Z,18.5
2023-07-31T11:56:04.444Z,18.5
2023-07-31T12:00:01.812Z,18.5
2023-07-31T12:04:01.309Z,18.7
2023-07-31T12:08:08.591Z,18.7
2023-07-31T12:12:01.121Z,19
2023-07-31T12:16:03.205Z,19
2023-07-31T12:20:01.969Z,19
2023-07-31T12:24:02.004Z,19.5
2023-07-31T12:28:05.187Z,19.5
2023-07-31T12:32:01.166Z,20.2
2023-07-31T12:36:01.523Z,20.2
2023-07-31T12:40:07.468Z,20.2
2023-07-31T12:44:01.142Z,21.1
2023-07-31T12:48:01.599Z,21.1
2023-07-31T12:52:00.986Z,21.1
2023-07-31T12:56:01.451Z,21.1
2023-07-31T13:00:01.094Z,21.1
2023-07-31T13:04:01.076Z,20.8
2023-07-31T13:08:01.077Z,20.8
2023-07-31T13:12:00.996Z,20.4
2023-07-31T13:16:01.028Z,20.4
2023-07-31T13:20:01.469Z,20.4
2023-07-31T13:24:00.996Z,20.1
2023-07-31T13:28:03.327Z,20.1
2023-07-31T13:32:01.046Z,19.9
2023-07-31T13:36:01.174Z,19.9
2023-07-31T13:40:01.122Z,19.9
2023-07-31T13:44:01.135Z,19.9
2023-07-31T13:48:01.017Z,19.9
2023-07-31T13:52:01.036Z,20
2023-07-31T13:56:01.079Z,20
2023-07-31T14:00:01.061Z,20
2023-07-31T14:04:01.072Z,20.2
2023-07-31T14:08:01.209Z,20.2
2023-07-31T14:12:01.096Z,20.1
2023-07-31T14:16:01.040Z,20.1
2023-07-31T14:20:01.549Z,20.1
2023-07-31T14:24:01.162Z,20
2023-07-31T14:28:01.011Z,20
2023-07-31T14:32:01.473Z,20.1
2023-07-31T14:36:01.127Z,20.1
2023-07-31T14:40:01.497Z,20.1
2023-07-31T14:44:01.001Z,20.5
2023-07-31T14:48:01.219Z,20.5
2023-07-31T14:52:01.038Z,21.2
2023-07-31T14:56:01.084Z,21.2
2023-07-31T15:00:01.023Z,21.2
2023-07-31T15:04:01.102Z,21.6
2023-07-31T15:08:01.043Z,21.6
2023-07-31T15:12:01.776Z,21.7
2023-07-31T15:16:01.066Z,21.7
2023-07-31T15:20:04.094Z,21.7
2023-07-31T15:24:01.020Z,21.5
2023-07-31T15:28:01.105Z,21.5
2023-07-31T15:32:01.131Z,21.2
2023-07-31T15:36:01.078Z,21.2
2023-07-31T15:40:01.075Z,21.2
2023-07-31T15:44:01.493Z,20.6
2023-07-31T15:48:01.005Z,20.6
2023-07-31T15:52:01.124Z,20.3
2023-07-31T15:56:00.996Z,20.3
2023-07-31T16:00:01.385Z,20.3
2023-07-31T16:04:01.014Z,19.9
2023-07-31T16:08:01.012Z,19.9
2023-07-31T16:12:01.614Z,19.7
2023-07-31T16:16:01.109Z,19.7
2023-07-31T16:20:01.014Z,19.7
2023-07-31T16:24:01.492Z,19.5
2023-07-31T16:28:01.008Z,19.5
2023-07-31T16:32:01.085Z,19.2
2023-07-31T16:36:01.047Z,19.2
2023-07-31T16:40:01.101Z,19.2
2023-07-31T16:44:01.015Z,18.9
2023-07-31T16:48:01.645Z,18.9
2023-07-31T16:52:01.040Z,18.6
2023-07-31T16:56:02.093Z,18.6
2023-07-31T17:00:01.114Z,18.6
2023-07-31T17:04:01.307Z,18.3
2023-07-31T17:08:00.960Z,18.3
2023-07-31T17:12:01.854Z,18
2023-07-31T17:16:01.060Z,18
2023-07-31T17:20:01.153Z,18
2023-07-31T17:24:01.746Z,17.8
2023-07-31T17:28:01.168Z,17.8
2023-07-31T17:32:01.129Z,17.8
2023-07-31T17:36:01.124Z,17.8
2023-07-31T17:40:00.984Z,17.8
2023-07-31T17:44:01.549Z,17.7
2023-07-31T17:48:01.008Z,17.7
2023-07-31T17:52:02.104Z,17.7
2023-07-31T17:56:01.078Z,17.7
2023-07-31T18:00:01.015Z,17.7
2023-07-31T18:04:01.043Z,17.6
2023-07-31T18:08:01.357Z,17.6
2023-07-31T18:12:01.010Z,17.4
2023-07-31T18:16:02.635Z,17.4
2023-07-31T18:20:01.169Z,17.4
2023-07-31T18:24:01.233Z,17.3
2023-07-31T18:28:01.002Z,17.3
2023-07-31T18:32:01.156Z,17.2
2023-07-31T18:36:03.132Z,17.2
2023-07-31T18:40:01.191Z,17.2
2023-07-31T18:44:01.198Z,17.2
2023-07-31T18:48:01.169Z,17.2
2023-07-31T18:52:01.044Z,17.4
2023-07-31T18:56:01.238Z,17.4
2023-07-31T19:00:01.157Z,17.4
2023-07-31T19:04:01.213Z,17.3
2023-07-31T19:08:04.770Z,17.3
2023-07-31T19:12:01.182Z,17
2023-07-31T19:16:01.081Z,17
2023-07-31T19:20:01.263Z,17
2023-07-31T19:24:00.981Z,16.8
2023-07-31T19:28:01.058Z,16.8
2023-07-31T19:32:01.037Z,16.5
2023-07-31T19:36:01.174Z,16.5
2023-07-31T19:40:01.038Z,16.5
2023-07-31T19:44:01.123Z,16.3
2023-07-31T19:48:01.005Z,16.3
2023-07-31T19:52:01.010Z,16
2023-07-31T19:56:01.143Z,16
2023-07-31T20:00:01.299Z,16
2023-07-31T20:04:01.014Z,15.8
2023-07-31T20:08:01.532Z,15.8
2023-07-31T20:12:01.063Z,15.6
2023-07-31T20:16:01.788Z,15.6
2023-07-31T20:20:01.060Z,15.6
2023-07-31T20:24:01.167Z,15.3
2023-07-31T20:28:01.441Z,15.3
2023-07-31T20:32:01.271Z,15.1
2023-07-31T20:36:00.932Z,15.1
2023-07-31T20:40:05.783Z,15.1
2023-07-31T20:44:01.030Z,14.9
2023-07-31T20:48:01.185Z,14.9
2023-07-31T20:52:00.984Z,14.6
2023-07-31T20:56:02.473Z,14.6
2023-07-31T21:00:00.999Z,14.6
2023-07-31T21:04:01.221Z,14.4
2023-07-31T21:08:02.058Z,14.4
2023-07-31T21:12:01.048Z,14.2
2023-07-31T21:16:01.154Z,14.2
2023-07-31T21:20:01.300Z,14.2
2023-07-31T21:24:01.009Z,13.9
2023-07-31T21:28:01.433Z,13.9
2023-07-31T21:32:01.096Z,13.9
2023-07-31T21:36:00.965Z,13.9
2023-07-31T21:40:00.970Z,13.9
2023-07-31T21:44:01.084Z,13.5
2023-07-31T21:48:01.033Z,13.5
2023-07-31T21:52:01.021Z,13.3
2023-07-31T21:56:01.162Z,13.3
2023-07-31T22:00:01.214Z,13.3
2023-07-31T22:04:01.397Z,13.1
2023-07-31T22:08:01.238Z,13.1
2023-07-31T22:12:01.000Z,12.8
2023-07-31T22:16:01.264Z,12.8
2023-07-31T22:20:01.192Z,12.8
2023-07-31T22:24:01.106Z,12.6
2023-07-31T22:28:11.044Z,12.6
2023-07-31T22:32:01.193Z,12.4
2023-07-31T22:36:01.033Z,12.4
2023-07-31T22:40:01.117Z,12.4
2023-07-31T22:44:01.320Z,12.1
2023-07-31T22:48:01.166Z,12.1
2023-07-31T22:52:01.004Z,11.9
2023-07-31T22:56:02.952Z,11.9
2023-07-31T23:00:01.016Z,11.9
2023-07-31T23:04:01.081Z,11.8
2023-07-31T23:08:01.085Z,11.8
2023-07-31T23:12:01.229Z,11.6
2023-07-31T23:16:00.993Z,11.6
2023-07-31T23:20:01.190Z,11.6
2023-07-31T23:24:01.127Z,11.4
2023-07-31T23:28:01.117Z,11.4
2023-07-31T23:32:01.111Z,11.2
2023-07-31T23:36:07.124Z,11.2
2023-07-31T23:40:01.204Z,11.2
2023-07-31T23:44:01.334Z,11
2023-07-31T23:48:01.135Z,11
2023-07-31T23:52:01.085Z,10.8
2023-07-31T23:56:02.083Z,10.8
